createdAt,value
2023-04-21T00:00:40.777Z,6.60
2023-04-21T00:05:43.512Z,6.60
2023-04-21T00:10:47.094Z,6.80
2023-04-21T00:15:49.927Z,6.90
2023-04-21T00:20:52.721Z,7.00
2023-04-21T00:25:55.304Z,7.00
2023-04-21T00:30:58.397Z,7.10
2023-04-21T00:36:01.587Z,7.00
2023-04-21T00:41:04.355Z,7.00
2023-04-21T00:46:06.979Z,7.00
2023-04-21T00:51:09.614Z,7.00
2023-04-21T00:56:12.561Z,7.10
2023-04-21T01:01:15.262Z,7.10
2023-04-21T01:06:20.771Z,7.00
2023-04-21T01:11:23.406Z,7.10
2023-04-21T01:16:27.058Z,7.20
2023-04-21T01:21:32.273Z,7.30
2023-04-21T01:26:37.036Z,7.10
2023-04-21T01:31:39.664Z,7.20
2023-04-21T01:36:43.823Z,7.20
2023-04-21T01:41:46.445Z,7.30
2023-04-21T01:46:50.154Z,7.40
2023-04-21T01:51:53.818Z,7.30
2023-04-21T01:56:56.635Z,7.30
2023-04-21T02:01:59.360Z,7.50
2023-04-21T02:07:02.446Z,7.50
2023-04-21T02:12:05.342Z,7.30
2023-04-21T02:17:07.937Z,7.20
2023-04-21T02:22:13.036Z,7.30
2023-04-21T02:27:15.825Z,7.30
2023-04-21T02:32:25.440Z,7.10
2023-04-21T02:37:28.396Z,7.00
2023-04-21T02:42:32.650Z,7.00
2023-04-21T02:47:35.519Z,7.00
2023-04-21T02:52:39.260Z,6.90
2023-04-21T02:57:41.995Z,6.90
2023-04-21T03:02:45.564Z,6.60
2023-04-21T03:07:48.307Z,6.60
2023-04-21T03:12:50.888Z,6.50
2023-04-21T03:17:53.670Z,6.30
2023-04-21T03:22:59.511Z,6.20
2023-04-21T03:28:02.306Z,6.20
2023-04-21T03:33:05.240Z,6.10
2023-04-21T03:38:08.948Z,6.00
2023-04-21T03:43:11.724Z,5.90
2023-04-21T03:48:14.825Z,5.90
2023-04-21T03:53:17.508Z,5.70
2023-04-21T03:58:20.189Z,5.70
2023-04-21T04:03:23.601Z,5.70
2023-04-21T04:08:26.541Z,5.70
2023-04-21T04:13:29.711Z,5.50
2023-04-21T04:18:32.439Z,5.60
2023-04-21T04:23:35.556Z,5.70
2023-04-21T04:28:38.601Z,5.70
2023-04-21T04:33:44.717Z,5.90
2023-04-21T04:38:47.486Z,6.00
2023-04-21T04:43:50.206Z,6.10
2023-04-21T04:48:52.911Z,6.30
2023-04-21T04:53:55.823Z,6.40
2023-04-21T04:58:58.500Z,6.60
2023-04-21T05:04:01.650Z,6.80
2023-04-21T05:09:05.209Z,7.10
2023-04-21T05:14:07.956Z,7.30
2023-04-21T05:19:11.136Z,7.70
2023-04-21T05:24:14.197Z,7.90
2023-04-21T05:29:17.124Z,8.30
2023-04-21T05:34:20.248Z,8.80
2023-04-21T05:39:23.045Z,9.30
2023-04-21T05:44:27.081Z,9.80
2023-04-21T05:49:30.221Z,10.20
2023-04-21T05:54:34.025Z,10.80
2023-04-21T05:59:36.965Z,11.30
2023-04-21T06:04:39.929Z,11.70
2023-04-21T06:09:43.145Z,11.80
2023-04-21T06:14:46.030Z,12.10
2023-04-21T06:19:53.287Z,12.40
2023-04-21T06:24:56.132Z,12.40
2023-04-21T06:29:58.976Z,12.60
2023-04-21T06:35:01.807Z,12.80
2023-04-21T06:40:05.211Z,13.00
2023-04-21T06:45:08.625Z,13.30
2023-04-21T06:50:11.337Z,13.60
2023-04-21T06:55:14.134Z,13.80
2023-04-21T07:00:17.520Z,14.00
2023-04-21T07:05:20.293Z,14.40
2023-04-21T07:10:23.335Z,14.70
2023-04-21T07:15:26.125Z,14.80
2023-04-21T07:20:28.866Z,15.20
2023-04-21T07:25:31.501Z,15.30
2023-04-21T07:30:34.299Z,15.50
2023-04-21T07:35:37.205Z,15.70
2023-04-21T07:40:40.035Z,15.80
2023-04-21T07:45:43.078Z,16.10
2023-04-21T07:50:45.873Z,16.50
2023-04-21T07:55:48.680Z,16.70
2023-04-21T08:00:51.518Z,16.80
2023-04-21T08:05:54.460Z,17.40
2023-04-21T08:10:57.365Z,17.40
2023-04-21T08:16:00.114Z,18.00
2023-04-21T08:21:02.938Z,18.20
2023-04-21T08:26:05.837Z,19.20
2023-04-21T08:31:09.199Z,19.40
2023-04-21T08:36:21.973Z,20.00
2023-04-21T08:41:31.431Z,20.50
2023-04-21T08:46:35.541Z,20.30
2023-04-21T08:51:38.439Z,20.90
2023-04-21T08:56:41.385Z,20.30
2023-04-21T09:02:08.918Z,20.50
2023-04-21T09:07:30.417Z,21.60
2023-04-21T09:12:33.605Z,22.00
2023-04-21T09:17:37.293Z,22.00
2023-04-21T09:22:40.230Z,22.40
2023-04-21T09:27:43.498Z,22.50
2023-04-21T09:32:46.446Z,22.00
2023-04-21T09:37:49.362Z,22.00
2023-04-21T09:42:52.148Z,22.20
2023-04-21T09:48:01.995Z,22.20
2023-04-21T09:53:08.206Z,22.10
2023-04-21T09:58:16.464Z,21.50
2023-04-21T10:03:23.409Z,22.30
2023-04-21T10:08:26.971Z,21.30
2023-04-21T10:13:30.692Z,21.50
2023-04-21T10:18:37.632Z,22.80
2023-04-21T10:23:43.983Z,21.50
2023-04-21T10:28:48.218Z,22.00
2023-04-21T10:34:09.051Z,23.30
2023-04-21T10:39:16.696Z,22.90
2023-04-21T10:44:19.619Z,24.20
2023-04-21T10:49:30.857Z,23.00
2023-04-21T10:54:50.348Z,24.20
2023-04-21T10:59:53.512Z,24.00
2023-04-21T11:04:56.768Z,24.30
2023-04-21T11:10:06.253Z,23.70
2023-04-21T11:15:11.941Z,23.30
2023-04-21T11:20:14.992Z,22.10
2023-04-21T11:25:18.883Z,22.00
2023-04-21T11:30:22.783Z,23.60
2023-04-21T11:35:25.574Z,23.60
2023-04-21T11:40:28.727Z,23.70
2023-04-21T11:45:31.971Z,24.40
2023-04-21T11:50:35.075Z,24.00
2023-04-21T11:55:37.696Z,23.00
2023-04-21T12:00:40.995Z,23.90
2023-04-21T12:05:43.856Z,21.40
2023-04-21T12:10:47.414Z,21.00
2023-04-21T12:15:50.413Z,21.20
2023-04-21T12:20:53.887Z,21.80
2023-04-21T12:25:56.860Z,21.10
2023-04-21T12:30:59.751Z,22.10
2023-04-21T12:36:02.683Z,23.40
2023-04-21T12:41:06.204Z,23.70
2023-04-21T12:46:09.160Z,23.60
2023-04-21T12:51:11.918Z,23.50
2023-04-21T12:56:14.925Z,22.70
2023-04-21T13:01:18.124Z,24.00
2023-04-21T13:06:21.041Z,24.20
2023-04-21T13:11:23.801Z,24.30
2023-04-21T13:16:29.391Z,24.90
2023-04-21T13:21:33.336Z,25.30
2023-04-21T13:26:36.170Z,22.80
2023-04-21T13:31:39.165Z,21.80
2023-04-21T13:36:42.188Z,20.70
2023-04-21T13:41:44.938Z,22.50
2023-04-21T13:46:47.960Z,23.40
2023-04-21T13:51:50.760Z,23.10
2023-04-21T13:56:53.541Z,23.60
2023-04-21T14:01:56.502Z,23.70
2023-04-21T14:06:59.323Z,24.00
2023-04-21T14:12:02.260Z,24.00
2023-04-21T14:17:05.147Z,21.90
2023-04-21T14:22:07.831Z,22.00
2023-04-21T14:27:11.034Z,23.00
2023-04-21T14:32:13.789Z,23.40
2023-04-21T14:37:16.503Z,23.10
2023-04-21T14:42:19.190Z,23.10
2023-04-21T14:47:22.748Z,23.00
2023-04-21T14:52:27.139Z,22.80
2023-04-21T14:57:29.912Z,22.10
2023-04-21T15:02:33.015Z,22.20
2023-04-21T15:07:36.413Z,21.90
2023-04-21T15:12:39.850Z,22.30
2023-04-21T15:17:42.721Z,21.60
2023-04-21T15:22:45.672Z,21.20
2023-04-21T15:27:48.447Z,21.30
2023-04-21T15:32:51.180Z,20.80
2023-04-21T15:37:53.969Z,21.00
2023-04-21T15:42:56.872Z,20.50
2023-04-21T15:47:59.824Z,20.90
2023-04-21T15:53:09.060Z,19.90
2023-04-21T15:58:13.887Z,20.10
2023-04-21T16:03:16.973Z,20.20
2023-04-21T16:08:19.937Z,20.10
2023-04-21T16:13:22.724Z,19.80
2023-04-21T16:18:25.595Z,19.60
2023-04-21T16:23:28.532Z,19.50
2023-04-21T16:28:31.377Z,19.20
2023-04-21T16:33:34.139Z,19.10
2023-04-21T16:38:36.907Z,19.00
2023-04-21T16:43:39.869Z,18.30
2023-04-21T16:48:43.037Z,18.10
2023-04-21T16:53:45.805Z,17.80
2023-04-21T16:58:48.595Z,17.70
2023-04-21T17:03:51.547Z,17.40
2023-04-21T17:08:59.924Z,17.20
2023-04-21T17:14:02.858Z,16.80
2023-04-21T17:19:05.962Z,16.50
2023-04-21T17:24:08.723Z,16.40
2023-04-21T17:29:11.726Z,16.10
2023-04-21T17:34:14.580Z,15.80
2023-04-21T17:39:17.283Z,15.30
2023-04-21T17:44:20.144Z,15.00
2023-04-21T17:49:25.065Z,14.70
2023-04-21T17:54:28.013Z,14.30
2023-04-21T17:59:31.382Z,14.00
2023-04-21T18:04:34.873Z,13.70
2023-04-21T18:09:38.026Z,13.40
2023-04-21T18:14:40.987Z,13.20
2023-04-21T18:19:43.954Z,13.00
2023-04-21T18:24:46.910Z,12.70
2023-04-21T18:29:50.598Z,12.60
2023-04-21T18:34:53.988Z,12.30
2023-04-21T18:39:56.924Z,12.20
2023-04-21T18:45:02.180Z,12.10
2023-04-21T18:50:11.000Z,11.90
2023-04-21T18:55:15.614Z,11.70
2023-04-21T19:00:18.742Z,11.60
2023-04-21T19:05:21.428Z,11.50
2023-04-21T19:10:24.057Z,11.40
2023-04-21T19:15:26.966Z,11.30
2023-04-21T19:20:30.745Z,11.30
2023-04-21T19:25:34.197Z,11.20
2023-04-21T19:30:37.009Z,11.00
2023-04-21T19:35:39.850Z,11.00
2023-04-21T19:40:45.188Z,10.80
2023-04-21T19:45:48.555Z,10.50
2023-04-21T19:50:51.715Z,10.30
2023-04-21T19:55:54.887Z,10.00
2023-04-21T20:00:57.699Z,9.80
2023-04-21T20:06:01.918Z,9.60
2023-04-21T20:11:04.700Z,9.40
2023-04-21T20:16:07.533Z,9.30
2023-04-21T20:21:10.888Z,9.20
2023-04-21T20:26:13.784Z,9.00
2023-04-21T20:31:19.256Z,8.90
2023-04-21T20:36:22.367Z,8.80
2023-04-21T20:41:24.999Z,8.80
2023-04-21T20:46:29.313Z,8.60
2023-04-21T20:51:33.328Z,8.40
2023-04-21T20:56:35.946Z,8.30
2023-04-21T21:01:41.602Z,8.20
2023-04-21T21:06:44.457Z,8.20
2023-04-21T21:11:47.190Z,7.70
2023-04-21T21:16:50.067Z,7.70
2023-04-21T21:21:52.877Z,7.60
2023-04-21T21:26:55.565Z,7.60
2023-04-21T21:31:58.207Z,7.60
2023-04-21T21:37:01.118Z,7.40
2023-04-21T21:42:03.979Z,7.30
2023-04-21T21:47:06.917Z,7.30
2023-04-21T21:52:09.607Z,7.30
2023-04-21T21:57:12.436Z,7.00
2023-04-21T22:02:15.854Z,6.80
2023-04-21T22:07:19.607Z,6.80
2023-04-21T22:12:22.282Z,7.00
2023-04-21T22:17:25.309Z,6.90
2023-04-21T22:22:27.998Z,6.90
2023-04-21T22:27:33.475Z,6.80
2023-04-21T22:32:36.481Z,6.70
2023-04-21T22:37:39.445Z,6.60
2023-04-21T22:42:42.461Z,6.50
2023-04-21T22:47:45.281Z,6.10
2023-04-21T22:52:48.221Z,6.10
2023-04-21T22:57:51.286Z,6.10
2023-04-21T23:02:54.013Z,6.00
2023-04-21T23:07:56.802Z,5.90
2023-04-21T23:13:01.437Z,5.60
2023-04-21T23:18:05.876Z,5.40
2023-04-21T23:23:08.618Z,5.50
2023-04-21T23:28:11.390Z,5.60
2023-04-21T23:33:14.077Z,5.70
2023-04-21T23:38:16.985Z,5.70
2023-04-21T23:43:19.605Z,5.60
2023-04-21T23:48:22.332Z,5.60
2023-04-21T23:53:25.030Z,5.60
2023-04-21T23:58:28.363Z,5.60
